createdAt,value
2022-08-30T00:02:21.264Z,80.41
2022-08-30T00:04:48.714Z,80.52
2022-08-30T00:07:15.738Z,80.63
2022-08-30T00:09:42.600Z,80.64
2022-08-30T00:12:10.015Z,80.58
2022-08-30T00:14:37.354Z,80.79
2022-08-30T00:17:04.325Z,81.14
2022-08-30T00:19:31.484Z,81.23
2022-08-30T00:21:58.367Z,81.25
2022-08-30T00:24:25.290Z,81.29
2022-08-30T00:26:52.336Z,81.33
2022-08-30T00:29:19.294Z,81.42
2022-08-30T00:31:46.278Z,81.40
2022-08-30T00:34:13.612Z,81.70
2022-08-30T00:36:40.537Z,81.70
2022-08-30T00:39:07.393Z,81.63
2022-08-30T00:41:34.511Z,81.86
2022-08-30T00:44:01.671Z,81.61
2022-08-30T00:46:28.592Z,81.84
2022-08-30T00:48:56.633Z,81.71
2022-08-30T00:51:24.326Z,81.92
2022-08-30T00:53:55.037Z,81.76
2022-08-30T00:56:24.588Z,81.64
2022-08-30T00:58:55.834Z,81.88
2022-08-30T01:01:23.427Z,81.67
2022-08-30T01:03:50.882Z,81.50
2022-08-30T01:06:18.783Z,81.83
2022-08-30T01:08:47.284Z,82.28
2022-08-30T01:11:18.585Z,82.44
2022-08-30T01:13:47.430Z,82.72
2022-08-30T01:16:15.520Z,82.68
2022-08-30T01:18:42.481Z,82.79
2022-08-30T01:21:36.998Z,82.99
2022-08-30T01:24:05.540Z,83.38
2022-08-30T01:26:34.992Z,83.52
2022-08-30T01:29:07.751Z,83.74
2022-08-30T01:31:37.225Z,83.77
2022-08-30T01:34:07.471Z,83.60
2022-08-30T01:36:38.086Z,84.35
2022-08-30T01:39:14.892Z,84.57
2022-08-30T01:41:42.274Z,84.69
2022-08-30T01:44:11.102Z,84.98
2022-08-30T01:46:42.085Z,85.11
2022-08-30T01:49:12.951Z,85.33
2022-08-30T01:51:41.166Z,85.46
2022-08-30T01:54:08.524Z,85.65
2022-08-30T01:56:35.522Z,85.51
2022-08-30T01:59:03.971Z,85.72
2022-08-30T02:01:33.443Z,85.83
2022-08-30T02:04:00.453Z,86.00
2022-08-30T02:06:28.206Z,86.27
2022-08-30T02:08:55.200Z,86.77
2022-08-30T02:11:22.203Z,87.17
2022-08-30T02:13:49.325Z,87.19
2022-08-30T02:16:19.354Z,87.26
2022-08-30T02:18:46.260Z,87.59
2022-08-30T02:21:13.502Z,87.98
2022-08-30T02:23:41.696Z,88.06
2022-08-30T02:26:09.721Z,88.45
2022-08-30T02:28:49.724Z,88.41
2022-08-30T02:31:19.537Z,88.44
2022-08-30T02:33:50.441Z,88.44
2022-08-30T02:36:18.917Z,88.62
2022-08-30T02:38:46.409Z,88.72
2022-08-30T02:41:14.248Z,88.81
2022-08-30T02:43:41.458Z,88.86
2022-08-30T02:46:08.609Z,89.23
2022-08-30T02:48:35.868Z,89.43
2022-08-30T02:51:11.930Z,89.68
2022-08-30T02:53:39.926Z,89.69
2022-08-30T02:56:07.564Z,89.70
2022-08-30T02:58:35.517Z,89.77
2022-08-30T03:01:03.183Z,90.09
2022-08-30T03:03:30.631Z,90.22
2022-08-30T03:05:57.888Z,90.33
2022-08-30T03:08:24.907Z,90.53
2022-08-30T03:10:52.169Z,91.10
2022-08-30T03:13:19.030Z,90.98
2022-08-30T03:15:46.269Z,91.24
2022-08-30T03:18:13.120Z,91.43
2022-08-30T03:20:41.418Z,91.46
2022-08-30T03:23:12.095Z,91.58
2022-08-30T03:25:48.876Z,91.64
2022-08-30T03:28:16.000Z,91.53
2022-08-30T03:30:43.039Z,91.88
2022-08-30T03:33:11.414Z,91.95
2022-08-30T03:35:38.882Z,92.04
2022-08-30T03:38:06.434Z,91.81
2022-08-30T03:40:33.423Z,91.84
2022-08-30T03:43:01.045Z,92.14
2022-08-30T03:45:28.391Z,92.47
2022-08-30T03:47:55.662Z,92.23
2022-08-30T03:50:22.828Z,92.35
2022-08-30T03:52:49.816Z,92.34
2022-08-30T03:55:16.921Z,92.55
2022-08-30T03:57:44.415Z,92.70
2022-08-30T04:00:13.976Z,92.87
2022-08-30T04:02:41.892Z,92.87
2022-08-30T04:05:10.360Z,92.34
2022-08-30T04:07:37.648Z,92.36
2022-08-30T04:10:07.401Z,92.47
2022-08-30T04:12:37.254Z,91.98
2022-08-30T04:15:06.292Z,91.76
2022-08-30T04:17:33.142Z,91.63
2022-08-30T04:20:00.527Z,91.67
2022-08-30T04:22:27.524Z,91.99
2022-08-30T04:24:54.393Z,91.90
2022-08-30T04:27:21.586Z,91.65
2022-08-30T04:29:48.804Z,91.60
2022-08-30T04:32:16.773Z,91.38
2022-08-30T04:34:44.185Z,91.66
2022-08-30T04:37:11.267Z,91.53
2022-08-30T04:39:38.873Z,91.43
2022-08-30T04:42:07.009Z,91.44
2022-08-30T04:44:33.999Z,91.42
2022-08-30T04:47:01.028Z,91.38
2022-08-30T04:49:28.504Z,90.78
2022-08-30T04:51:55.919Z,90.06
2022-08-30T04:54:23.257Z,89.97
2022-08-30T04:56:50.426Z,89.64
2022-08-30T04:59:17.514Z,90.15
2022-08-30T05:01:45.887Z,89.84
2022-08-30T05:04:14.768Z,90.37
2022-08-30T05:06:42.076Z,89.53
2022-08-30T05:09:08.998Z,89.60
2022-08-30T05:11:37.055Z,89.35
2022-08-30T05:14:04.625Z,89.21
2022-08-30T05:16:31.584Z,89.39
2022-08-30T05:18:58.755Z,90.19
2022-08-30T05:21:27.286Z,90.42
2022-08-30T05:24:02.504Z,89.96
2022-08-30T05:26:32.692Z,88.83
2022-08-30T05:29:00.544Z,88.73
2022-08-30T05:31:31.920Z,88.04
2022-08-30T05:33:59.137Z,88.01
2022-08-30T05:36:29.543Z,88.14
2022-08-30T05:38:56.787Z,88.29
2022-08-30T05:41:26.701Z,88.66
2022-08-30T05:43:59.825Z,87.58
2022-08-30T05:46:30.197Z,87.33
2022-08-30T05:48:57.491Z,86.83
2022-08-30T05:51:26.538Z,86.08
2022-08-30T05:53:54.793Z,86.09
2022-08-30T05:56:26.017Z,85.48
2022-08-30T05:58:53.880Z,85.59
2022-08-30T06:01:27.054Z,85.73
2022-08-30T06:03:55.572Z,84.87
2022-08-30T06:06:23.265Z,84.58
2022-08-30T06:08:51.013Z,84.74
2022-08-30T06:11:20.696Z,84.76
2022-08-30T06:13:49.441Z,85.09
2022-08-30T06:16:18.645Z,84.89
2022-08-30T06:18:46.144Z,84.21
2022-08-30T06:21:20.196Z,83.68
2022-08-30T06:23:47.485Z,82.02
2022-08-30T06:26:16.050Z,82.86
2022-08-30T06:28:42.983Z,82.49
2022-08-30T06:31:12.198Z,82.25
2022-08-30T06:33:40.652Z,82.11
2022-08-30T06:36:11.149Z,81.49
2022-08-30T06:38:40.039Z,80.30
2022-08-30T06:41:09.014Z,80.53
2022-08-30T06:43:36.237Z,79.71
2022-08-30T06:46:04.968Z,80.38
2022-08-30T06:48:32.081Z,80.35
2022-08-30T06:50:59.431Z,79.97
2022-08-30T06:53:29.275Z,79.93
2022-08-30T06:55:59.113Z,80.48
2022-08-30T06:58:26.345Z,79.95
2022-08-30T07:00:53.736Z,78.93
2022-08-30T07:03:21.296Z,79.09
2022-08-30T07:05:49.563Z,79.26
2022-08-30T07:08:17.799Z,78.54
2022-08-30T07:10:45.811Z,78.04
2022-08-30T07:13:13.603Z,77.69
2022-08-30T07:15:43.175Z,77.67
2022-08-30T07:18:30.382Z,77.84
2022-08-30T07:20:58.485Z,77.31
2022-08-30T07:23:25.536Z,77.28
2022-08-30T07:25:52.367Z,77.66
2022-08-30T07:28:19.258Z,78.02
2022-08-30T07:30:46.371Z,78.20
2022-08-30T07:33:13.471Z,77.76
2022-08-30T07:35:40.637Z,77.76
2022-08-30T07:38:12.663Z,78.43
2022-08-30T07:40:39.753Z,78.36
2022-08-30T07:43:06.839Z,78.47
2022-08-30T07:45:33.915Z,78.24
2022-08-30T07:48:02.621Z,77.95
2022-08-30T07:50:29.521Z,76.58
2022-08-30T07:52:56.922Z,76.65
2022-08-30T07:55:23.971Z,75.42
2022-08-30T07:57:50.969Z,74.63
2022-08-30T08:00:18.321Z,73.54
2022-08-30T08:02:45.606Z,73.52
2022-08-30T08:05:17.342Z,73.46
2022-08-30T08:07:46.458Z,73.75
2022-08-30T08:10:14.197Z,73.95
2022-08-30T08:12:41.759Z,74.14
2022-08-30T08:15:09.211Z,73.85
2022-08-30T08:17:36.422Z,72.32
2022-08-30T08:20:04.222Z,72.68
2022-08-30T08:22:31.366Z,72.77
2022-08-30T08:24:58.377Z,72.86
2022-08-30T08:27:25.223Z,72.94
2022-08-30T08:29:52.680Z,72.49
2022-08-30T08:32:19.723Z,72.86
2022-08-30T08:34:46.651Z,72.16
2022-08-30T08:37:13.681Z,71.47
2022-08-30T08:39:40.549Z,71.75
2022-08-30T08:42:19.711Z,71.38
2022-08-30T08:45:08.694Z,70.65
2022-08-30T08:47:59.199Z,70.93
2022-08-30T08:50:31.196Z,70.86
2022-08-30T08:53:45.875Z,71.24
2022-08-30T08:56:16.918Z,70.76
2022-08-30T08:58:48.545Z,70.20
2022-08-30T09:01:17.297Z,70.09
2022-08-30T09:03:45.709Z,69.61
2022-08-30T09:06:45.081Z,69.50
2022-08-30T09:09:13.773Z,68.08
2022-08-30T09:11:42.228Z,69.14
2022-08-30T09:14:22.337Z,70.04
2022-08-30T09:16:55.027Z,69.80
2022-08-30T09:19:37.602Z,68.81
2022-08-30T09:22:14.273Z,68.35
2022-08-30T09:24:47.596Z,68.73
2022-08-30T09:27:18.906Z,68.51
2022-08-30T09:29:57.784Z,69.21
2022-08-30T09:32:28.191Z,69.99
2022-08-30T09:34:55.836Z,69.87
2022-08-30T09:37:33.369Z,69.21
2022-08-30T09:40:00.874Z,66.94
2022-08-30T09:42:30.113Z,66.77
2022-08-30T09:45:10.636Z,66.33
2022-08-30T09:47:43.124Z,66.10
2022-08-30T09:50:16.369Z,66.10
2022-08-30T09:53:09.986Z,65.14
2022-08-30T09:55:54.972Z,66.50
2022-08-30T09:58:46.560Z,66.29
2022-08-30T10:01:22.900Z,65.60
2022-08-30T10:04:12.881Z,65.80
2022-08-30T10:07:00.052Z,67.15
2022-08-30T10:10:09.013Z,65.96
2022-08-30T10:13:04.459Z,65.98
2022-08-30T10:15:56.823Z,66.83
2022-08-30T10:18:32.257Z,66.63
2022-08-30T10:21:19.301Z,66.18
2022-08-30T10:23:53.483Z,66.31
2022-08-30T10:26:43.593Z,66.63
2022-08-30T10:29:19.319Z,67.19
2022-08-30T10:32:16.537Z,67.57
2022-08-30T10:34:54.945Z,66.94
2022-08-30T10:37:28.444Z,65.56
2022-08-30T10:40:23.998Z,65.85
2022-08-30T10:42:56.477Z,66.19
2022-08-30T10:45:25.710Z,66.58
2022-08-30T10:48:31.155Z,67.96
2022-08-30T10:51:04.930Z,69.04
2022-08-30T10:53:40.823Z,69.47
2022-08-30T10:56:16.976Z,69.21
2022-08-30T10:58:44.173Z,69.57
2022-08-30T11:01:50.469Z,69.48
2022-08-30T11:04:29.145Z,68.25
2022-08-30T11:07:11.847Z,68.12
2022-08-30T11:10:13.759Z,66.18
2022-08-30T11:12:41.602Z,65.55
2022-08-30T11:15:22.546Z,65.98
2022-08-30T11:18:13.078Z,66.75
2022-08-30T11:20:47.106Z,66.70
2022-08-30T11:23:19.815Z,67.41
2022-08-30T11:25:53.549Z,66.23
2022-08-30T11:28:37.262Z,66.04
2022-08-30T11:31:08.121Z,64.97
2022-08-30T11:33:43.490Z,65.70
2022-08-30T11:36:37.920Z,65.84
2022-08-30T11:39:33.089Z,65.98
2022-08-30T11:42:31.839Z,64.88
2022-08-30T11:45:25.239Z,65.28
2022-08-30T11:48:00.020Z,63.42
2022-08-30T11:50:55.262Z,62.57
2022-08-30T11:53:47.616Z,63.09
2022-08-30T11:56:54.484Z,62.26
2022-08-30T11:59:32.886Z,62.18
2022-08-30T12:02:01.676Z,60.93
2022-08-30T12:04:47.522Z,59.71
2022-08-30T12:07:53.316Z,59.03
2022-08-30T12:10:37.347Z,59.29
2022-08-30T12:13:06.573Z,59.77
2022-08-30T12:15:55.044Z,58.34
2022-08-30T12:18:30.638Z,58.97
2022-08-30T12:21:05.206Z,58.01
2022-08-30T12:23:47.596Z,58.87
2022-08-30T12:26:17.160Z,58.03
2022-08-30T12:28:49.782Z,58.72
2022-08-30T12:31:21.722Z,59.06
2022-08-30T12:33:54.871Z,58.23
2022-08-30T12:36:53.858Z,58.86
2022-08-30T12:39:23.032Z,58.26
2022-08-30T12:41:50.375Z,58.04
2022-08-30T12:44:26.696Z,58.46
2022-08-30T12:47:00.758Z,58.13
2022-08-30T12:49:31.816Z,59.39
2022-08-30T12:52:17.722Z,58.75
2022-08-30T12:54:46.696Z,57.78
2022-08-30T12:57:34.509Z,58.04
2022-08-30T13:00:01.915Z,57.58
2022-08-30T13:02:52.176Z,56.70
2022-08-30T13:05:32.221Z,57.33
2022-08-30T13:08:36.929Z,58.18
2022-08-30T13:11:08.660Z,58.46
2022-08-30T13:13:45.379Z,59.09
2022-08-30T13:16:20.517Z,59.65
2022-08-30T13:18:50.152Z,59.08
2022-08-30T13:21:28.044Z,59.36
2022-08-30T13:23:58.777Z,59.87
2022-08-30T13:26:27.852Z,59.90
2022-08-30T13:29:00.577Z,59.40
2022-08-30T13:31:30.123Z,59.65
2022-08-30T13:33:58.751Z,60.02
2022-08-30T13:36:30.748Z,60.05
2022-08-30T13:38:59.469Z,59.77
2022-08-30T13:41:30.033Z,59.57
2022-08-30T13:44:12.984Z,59.58
2022-08-30T13:46:45.711Z,60.05
2022-08-30T13:52:20.298Z,59.75
2022-08-30T13:54:58.203Z,59.89
2022-08-30T14:00:19.244Z,60.10
2022-08-30T14:02:54.066Z,59.79
2022-08-30T14:11:11.407Z,60.42
2022-08-30T14:14:14.617Z,61.00
2022-08-30T14:16:28.710Z,60.57
2022-08-30T14:18:56.178Z,60.45
2022-08-30T14:21:24.539Z,60.82
2022-08-30T14:23:53.374Z,60.69
2022-08-30T14:26:33.813Z,61.61
2022-08-30T14:29:09.386Z,61.50
2022-08-30T14:31:38.620Z,61.35
2022-08-30T14:34:08.718Z,61.11
2022-08-30T14:36:38.133Z,61.43
2022-08-30T14:39:10.045Z,61.16
2022-08-30T14:41:43.975Z,60.76
2022-08-30T14:44:13.853Z,60.22
2022-08-30T14:46:41.899Z,60.56
2022-08-30T14:49:11.230Z,61.00
2022-08-30T14:51:39.704Z,59.67
2022-08-30T14:54:07.737Z,59.60
2022-08-30T14:56:34.911Z,58.85
2022-08-30T14:59:03.268Z,59.12
2022-08-30T15:01:31.543Z,59.36
2022-08-30T15:04:01.172Z,59.09
2022-08-30T15:06:28.819Z,59.57
2022-08-30T15:08:56.466Z,60.37
2022-08-30T15:11:26.061Z,60.93
2022-08-30T15:13:54.494Z,61.16
2022-08-30T15:16:30.856Z,60.63
2022-08-30T15:19:00.292Z,60.65
2022-08-30T15:21:31.236Z,60.77
2022-08-30T15:23:59.981Z,61.01
2022-08-30T15:26:28.679Z,60.34
2022-08-30T15:28:56.728Z,60.59
2022-08-30T15:31:28.265Z,61.44
2022-08-30T15:33:55.793Z,61.84
2022-08-30T15:36:24.743Z,62.88
2022-08-30T15:38:55.855Z,62.88
2022-08-30T15:41:23.103Z,63.16
2022-08-30T15:43:53.015Z,63.36
2022-08-30T15:46:32.229Z,63.75
2022-08-30T15:49:02.740Z,64.46
2022-08-30T15:51:41.584Z,64.63
2022-08-30T15:54:11.954Z,64.89
2022-08-30T15:56:39.815Z,64.72
2022-08-30T15:59:07.347Z,64.65
2022-08-30T16:01:38.232Z,63.35
2022-08-30T16:04:05.274Z,63.71
2022-08-30T16:06:35.350Z,63.93
2022-08-30T16:09:04.853Z,63.98
2022-08-30T16:11:32.169Z,64.77
2022-08-30T16:13:59.248Z,65.19
2022-08-30T16:16:26.700Z,65.38
2022-08-30T16:18:55.271Z,65.82
2022-08-30T16:21:30.597Z,65.81
2022-08-30T16:24:00.892Z,65.90
2022-08-30T16:26:29.705Z,65.79
2022-08-30T16:28:57.109Z,66.16
2022-08-30T16:31:27.483Z,66.31
2022-08-30T16:33:57.316Z,66.27
2022-08-30T16:36:30.083Z,66.52
2022-08-30T16:38:58.401Z,65.70
2022-08-30T16:41:25.655Z,66.13
2022-08-30T16:43:53.856Z,66.17
2022-08-30T16:46:27.127Z,65.76
2022-08-30T16:48:57.836Z,66.29
2022-08-30T16:51:27.095Z,65.98
2022-08-30T16:53:58.147Z,65.93
2022-08-30T16:56:27.519Z,66.17
2022-08-30T17:01:44.837Z,66.38
2022-08-30T17:04:13.887Z,66.69
2022-08-30T17:06:46.842Z,66.75
2022-08-30T17:09:15.131Z,67.09
2022-08-30T17:11:42.280Z,66.96
2022-08-30T17:14:10.475Z,67.17
2022-08-30T17:16:38.549Z,67.13
2022-08-30T17:19:08.813Z,67.27
2022-08-30T17:21:36.130Z,67.50
2022-08-30T17:24:05.886Z,67.35
2022-08-30T17:26:35.281Z,66.94
2022-08-30T17:29:03.465Z,67.46
2022-08-30T17:31:31.258Z,67.38
2022-08-30T17:34:03.555Z,67.53
2022-08-30T17:36:36.183Z,67.47
2022-08-30T17:39:10.588Z,67.58
2022-08-30T17:41:43.355Z,67.80
2022-08-30T17:44:17.406Z,67.68
2022-08-30T17:46:45.382Z,67.88
2022-08-30T17:49:13.055Z,68.20
2022-08-30T17:51:42.575Z,68.10
2022-08-30T17:54:14.035Z,68.43
2022-08-30T17:56:41.836Z,67.92
2022-08-30T17:59:10.949Z,68.20
2022-08-30T18:01:38.879Z,68.13
2022-08-30T18:04:06.081Z,67.50
2022-08-30T18:06:34.777Z,66.87
2022-08-30T18:09:04.202Z,67.11
2022-08-30T18:11:36.102Z,67.00
2022-08-30T18:14:04.345Z,66.97
2022-08-30T18:16:36.199Z,66.56
2022-08-30T18:19:09.703Z,66.94
2022-08-30T18:21:37.962Z,67.56
2022-08-30T18:24:05.711Z,67.39
2022-08-30T18:26:33.239Z,67.52
2022-08-30T18:29:01.497Z,68.23
2022-08-30T18:31:29.383Z,68.57
2022-08-30T18:33:58.900Z,69.17
2022-08-30T18:36:30.375Z,69.46
2022-08-30T18:38:58.418Z,69.60
2022-08-30T18:41:26.133Z,69.80
2022-08-30T18:44:11.060Z,69.95
2022-08-30T18:46:55.722Z,70.32
2022-08-30T18:49:24.700Z,71.00
2022-08-30T18:51:51.520Z,71.17
2022-08-30T18:54:19.120Z,71.21
2022-08-30T18:56:46.375Z,71.39
2022-08-30T18:59:13.635Z,71.88
2022-08-30T19:01:41.205Z,71.93
2022-08-30T19:04:08.419Z,72.35
2022-08-30T19:06:37.686Z,72.66
2022-08-30T19:09:09.053Z,73.00
2022-08-30T19:11:38.220Z,72.83
2022-08-30T19:14:07.652Z,73.07
2022-08-30T19:16:34.866Z,73.44
2022-08-30T19:19:03.247Z,73.13
2022-08-30T19:21:30.267Z,73.31
2022-08-30T19:23:58.640Z,73.41
2022-08-30T19:26:27.581Z,73.94
2022-08-30T19:28:54.648Z,73.61
2022-08-30T19:31:21.658Z,73.81
2022-08-30T19:33:48.765Z,73.32
2022-08-30T19:36:16.007Z,73.42
2022-08-30T19:38:44.539Z,73.54
2022-08-30T19:41:12.835Z,73.60
2022-08-30T19:43:40.095Z,73.39
2022-08-30T19:46:08.526Z,73.53
2022-08-30T19:48:43.144Z,73.72
2022-08-30T19:51:11.880Z,73.47
2022-08-30T19:53:41.969Z,73.33
2022-08-30T19:56:09.329Z,73.64
2022-08-30T19:58:36.569Z,73.87
2022-08-30T20:01:10.613Z,73.37
2022-08-30T20:03:39.900Z,73.76
2022-08-30T20:06:07.828Z,74.06
2022-08-30T20:08:36.492Z,74.13
2022-08-30T20:11:04.351Z,73.75
2022-08-30T20:13:33.698Z,73.85
2022-08-30T20:16:01.631Z,74.25
2022-08-30T20:18:29.144Z,74.54
2022-08-30T20:20:56.707Z,74.36
2022-08-30T20:23:25.366Z,74.77
2022-08-30T20:24:23.157Z,65.96
2022-08-30T20:25:54.562Z,75.10
2022-08-30T20:28:22.134Z,75.45
2022-08-30T20:30:49.743Z,75.50
2022-08-30T20:33:21.497Z,75.60
2022-08-30T20:35:49.778Z,76.23
2022-08-30T20:38:21.756Z,76.16
2022-08-30T20:40:52.381Z,76.78
2022-08-30T20:43:21.698Z,76.58
2022-08-30T20:45:48.677Z,77.05
2022-08-30T20:48:17.510Z,77.41
2022-08-30T20:50:44.877Z,77.59
2022-08-30T20:53:12.241Z,77.85
2022-08-30T20:55:45.290Z,77.90
2022-08-30T20:58:12.939Z,78.24
2022-08-30T21:00:40.883Z,78.18
2022-08-30T21:03:26.439Z,78.12
2022-08-30T21:05:56.218Z,77.79
2022-08-30T21:08:23.504Z,78.00
2022-08-30T21:10:50.583Z,78.02
2022-08-30T21:13:18.025Z,78.20
2022-08-30T21:15:46.243Z,77.75
2022-08-30T21:18:14.776Z,77.79
2022-08-30T21:20:42.412Z,78.31
2022-08-30T21:23:09.980Z,78.42
2022-08-30T21:25:41.906Z,78.50
2022-08-30T21:28:08.980Z,77.91
2022-08-30T21:30:37.022Z,77.51
2022-08-30T21:33:05.319Z,77.49
2022-08-30T21:35:55.421Z,77.05
2022-08-30T21:38:22.559Z,77.03
2022-08-30T21:40:49.611Z,77.25
2022-08-30T21:43:16.781Z,75.98
2022-08-30T21:45:45.054Z,76.12
2022-08-30T21:48:13.528Z,75.72
2022-08-30T21:50:42.419Z,75.65
2022-08-30T21:53:10.474Z,76.15
2022-08-30T21:55:37.639Z,75.77
2022-08-30T21:58:04.799Z,75.48
2022-08-30T22:00:33.652Z,75.85
2022-08-30T22:03:00.845Z,75.69
2022-08-30T22:05:28.024Z,75.23
2022-08-30T22:07:55.119Z,75.59
2022-08-30T22:10:22.617Z,75.25
2022-08-30T22:12:49.701Z,75.55
2022-08-30T22:15:17.169Z,74.80
2022-08-30T22:17:44.531Z,75.09
2022-08-30T22:20:13.211Z,75.40
2022-08-30T22:22:46.061Z,75.56
2022-08-30T22:25:13.322Z,75.49
2022-08-30T22:27:40.487Z,75.25
2022-08-30T22:30:08.113Z,75.25
2022-08-30T22:32:37.909Z,75.06
2022-08-30T22:35:05.677Z,75.47
2022-08-30T22:37:34.115Z,75.00
2022-08-30T22:40:01.460Z,74.94
2022-08-30T22:42:28.705Z,75.05
2022-08-30T22:44:56.001Z,74.88
2022-08-30T22:47:23.062Z,74.78
2022-08-30T22:49:50.277Z,74.90
2022-08-30T22:52:17.457Z,75.39
2022-08-30T22:54:51.473Z,75.35
2022-08-30T22:57:20.041Z,75.42
2022-08-30T22:59:47.029Z,75.67
2022-08-30T23:02:14.396Z,75.20
2022-08-30T23:04:41.719Z,74.62
2022-08-30T23:07:08.819Z,74.98
2022-08-30T23:09:35.753Z,74.50
2022-08-30T23:12:03.011Z,74.89
2022-08-30T23:14:29.867Z,74.82
2022-08-30T23:16:56.826Z,75.14
2022-08-30T23:19:24.327Z,75.57
2022-08-30T23:21:51.211Z,75.22
2022-08-30T23:24:36.439Z,74.95
2022-08-30T23:27:23.054Z,75.11
2022-08-30T23:30:08.285Z,74.62
2022-08-30T23:32:54.129Z,74.96
2022-08-30T23:35:39.509Z,74.76
2022-08-30T23:38:25.519Z,74.42
2022-08-30T23:41:10.912Z,74.91
2022-08-30T23:43:56.634Z,74.80
2022-08-30T23:46:42.611Z,74.67
2022-08-30T23:49:28.330Z,74.87
2022-08-30T23:52:14.089Z,74.83
2022-08-30T23:55:00.202Z,74.16
2022-08-30T23:57:46.094Z,73.97
